CST,Max TemperatureF,Mean TemperatureF,Min TemperatureF,Max Dew PointF,MeanDew PointF,Min DewpointF,Max Humidity, Mean Humidity, Min Humidity, Max Sea Level PressureIn, Mean Sea Level PressureIn, Min Sea Level PressureIn, Max VisibilityMiles, Mean VisibilityMiles, Min VisibilityMiles, Max Wind SpeedMPH, Mean Wind SpeedMPH, Max Gust SpeedMPH,PrecipitationIn, CloudCover, Events, WindDirDegrees
2013-12-1,56,46,35,39,34,24,86,69,51,30.18,30.07,29.95,10,10,7,8,3,10,0.00,4,,216
2013-12-2,57,45,32,42,37,30,96,76,55,29.94,29.84,29.75,10,7,1,8,2,13,0.00,1,,133
2013-12-3,59,49,39,52,45,37,100,84,67,29.82,29.77,29.74,10,3,0,10,4,14,0.00,5,Fog,122
2013-12-4,70,60,49,59,55,46,100,81,61,29.78,29.74,29.64,10,5,0,21,9,30,0.01,7,Fog,151
2013-12-5,64,46,28,57,32,25,86,81,76,30.25,30.09,29.78,10,8,2,21,10,25,0.73,8,Rain-Snow,334
2013-12-6,28,25,22,25,20,14,88,83,77,30.52,30.30,30.20,10,4,0,17,10,22,1.16,8,Fog-Rain-Snow,356
2013-12-7,23,17,11,15,11,5,77,72,67,30.68,30.60,30.49,10,10,10,14,8,22,0.00,1,,7
2013-12-8,33,28,22,31,25,15,92,83,74,30.44,30.18,30.04,10,4,0,15,7,18,0.02,8,Fog-Rain-Snow,93
2013-12-9,32,27,21,28,20,15,92,75,58,30.32,30.23,30.11,10,9,5,15,7,18,T,5,Snow,290
2013-12-10,33,24,15,18,16,13,92,68,43,30.41,30.33,30.25,10,8,2,16,7,20,0.02,3,Snow,253
2013-12-11,35,25,14,24,15,7,88,72,56,30.65,30.46,30.38,10,7,1,22,7,28,0.00,2,,311
2013-12-12,25,15,5,11,4,-1,80,58,36,30.67,30.56,30.39,10,10,10,12,3,14,0.00,0,,213
2013-12-13,39,28,17,32,24,12,89,69,48,30.37,30.21,30.06,10,8,1,20,5,26,0.14,4,Rain-Snow,149
2013-12-14,38,36,33,36,33,28,92,84,75,30.07,29.89,29.78,10,5,0,20,8,26,0.61,8,Fog-Rain,347
2013-12-15,33,31,29,27,24,21,82,76,69,30.23,30.15,30.06,10,10,8,20,12,24,0.00,8,,267
2013-12-16,47,40,33,34,31,28,82,71,60,30.13,30.08,30.05,10,9,6,14,6,17,0.00,3,,206
2013-12-17,40,34,27,30,26,23,85,75,64,30.28,30.19,30.09,10,8,3,17,7,21,0.00,4,,287
2013-12-18,47,35,23,25,20,18,81,56,31,30.34,30.22,30.07,10,10,10,16,7,20,0.00,0,,188
2013-12-19,60,48,36,46,39,26,72,63,54,30.09,30.02,29.93,10,10,10,23,10,28,0.00,3,,190
2013-12-20,64,60,55,58,54,45,86,74,62,29.92,29.86,29.82,10,10,4,20,11,26,0.08,8,Rain,188
2013-12-21,58,50,42,56,47,40,93,90,86,29.82,29.67,29.49,10,4,1,24,7,29,4.42,8,Rain-Thunderstorm,350
2013-12-22,46,41,35,43,37,29,93,84,75,30.21,29.92,29.60,10,8,2,18,10,24,0.01,8,Rain,274
2013-12-23,35,30,25,29,21,16,82,73,63,30.51,30.43,30.21,10,10,10,16,10,22,0.00,8,,307
2013-12-24,25,20,14,16,8,2,68,57,45,30.68,30.57,30.48,10,10,10,16,6,21,0.00,2,,327
2013-12-25,38,30,21,27,20,12,78,65,52,30.46,30.35,30.28,10,10,10,14,5,19,0.00,6,,191
2013-12-26,43,35,26,28,24,21,85,64,43,30.44,30.39,30.31,10,9,5,14,5,18,0.00,1,,215
2013-12-27,50,39,27,33,28,22,81,67,52,30.46,30.39,30.33,10,10,10,13,4,17,0.00,0,,206
2013-12-28,49,39,28,34,30,25,85,67,49,30.33,30.20,29.99,10,10,7,12,4,15,0.01,2,Rain,177
2013-12-29,49,38,27,39,31,20,92,79,66,30.22,30.03,29.91,10,9,4,23,10,29,0.12,7,Rain,278
2013-12-30,28,24,19,19,14,9,75,61,46,30.36,30.30,30.22,10,10,10,14,6,17,T,5,,307
2013-12-31,39,30,20,25,19,15,77,61,44,30.46,30.35,30.28,10,10,10,14,7,18,0.00,1,,213